Terminal Aerodrome Forecast
Issued by NWS North Platte, NE

Home | Current Version | Previous Version | Text Only | Print | Product List | Glossary On
Versions: 1 2 3 4 5 6 7 8 9 10 11 12 13 14 15 16 17 18 19 20 21
615
FTUS43 KLBF 292334
TAFLBF
TAF
KLBF 292334Z 3000/3024 16010KT P6SM SCT090
      TEMPO 3000/3003 5SM -TSRA BKN080CB
     FM300300 12007KT P6SM BKN150
     FM301300 22011KT P6SM FEW220=

USA.gov is the U.S. government's official web portal to all federal, state and local government web resources and services.